Aérodrome :
LOGIN :

S'inscrire | Disclaimer

   EN    FR    IT 

 










Légende :    VFR   VFR Marginal   IFR   IFR Intensif   IFR Très Intensif
Visi : 
Plafond : 
>= 8 km
>= 3000ft
5 à 8 km
1000 à 3000 ft
1500m à 5 km
500 à 1000 ft
800 à 1500m
200 à 500 ft
< 800m
< 200 ft
Symboles :   Orages  Brouillard  Fortes neiges  Fortes précipitations  Vent > 20 kt
SIGMETs :   Divers  Orages  Givrage  Turbulence  Onde Orograph.  Cendres Volcan.







- Altitude de l'aérodrome : 157 ft
- Code IATA : LIL
- Voir les cartes d'approche


LFQQ - Lille Lesquin

DERNIER METAR :
  • 250030Z AUTO 24013KT 9999 OVC015 13/10 Q1011 TEMPO BKN013

METARs EXPIRÉS :
  • 250000Z AUTO 24012KT 9999 OVC016 13/10 Q1011 TEMPO BKN013
  • 242330Z AUTO 23012KT 9999 FEW017 OVC062 13/10 Q1011 TEMPO BKN013
  • 242300Z AUTO 23011KT 9999 SCT044 SCT054 BKN066 13/10 Q1011 TEMPO BKN013
  • 242230Z AUTO 22008KT 9999 SCT042 SCT054 BKN070 13/10 Q1011 TEMPO BKN013
  • 242200Z AUTO 23008KT 9999 SCT034 SCT047 BKN070 13/10 Q1012 TEMPO BKN013

TAF TAF LFQQ
Valide du 25 à 00h jusqu'au 26 à 06h UTC


242300Z 2500/2606 22013KT 9999 BKN040
TEMPO 2500/2504 BKN013
TEMPO 2504/2507 3000 RADZ OVC006
FM250700 26015KT 9999 SCT020
TEMPO 2511/2520 29020G30KT 4000 SHRA BKN020TCU
ATIS : +33 3 20 16 19 54
Pas de NOTAMs connus pour ce terrain.



MET'MAP, la Météo Aéronautique d'un coup d'oeil ! - Copyright ORBIFLY Décembre 2007 - Disclaimer

ORBIFLY MET'MAP TEAM :

Programmation & Développement : Alexandra Zaïnal
Conception & Développement : Baudouin d'Aumeries
Co-Programmation & Développement : Marc-Olivier Méhu
Soutien technique & logistique : Manuel Goepfert

Contact : metmap@orbifly.com




SOURCES & CREDITS :

   NOAA